sensor_id;sensor_type;location;lat;lon;timestamp;pressure;altitude;pressure_sealevel;temperature;humidity
8047;BME280;67150;42.516;23.358;2023-08-17T00:02:06;88775.38;;;21.17;56.83
8047;BME280;67150;42.516;23.358;2023-08-17T00:04:33;88780.50;;;21.17;56.97
8047;BME280;67150;42.516;23.358;2023-08-17T00:07:01;88780.34;;;21.19;56.99
8047;BME280;67150;42.516;23.358;2023-08-17T00:09:28;88781.47;;;21.16;56.39
8047;BME280;67150;42.516;23.358;2023-08-17T00:11:55;88784.19;;;21.15;56.66
8047;BME280;67150;42.516;23.358;2023-08-17T00:14:23;88788.53;;;21.14;56.53
8047;BME280;67150;42.516;23.358;2023-08-17T00:16:50;88783.41;;;21.14;56.39
8047;BME280;67150;42.516;23.358;2023-08-17T00:19:19;88780.03;;;21.14;56.62
8047;BME280;67150;42.516;23.358;2023-08-17T00:21:46;88780.84;;;21.14;56.38
8047;BME280;67150;42.516;23.358;2023-08-17T00:24:13;88777.66;;;21.12;56.57
8047;BME280;67150;42.516;23.358;2023-08-17T00:26:41;88783.56;;;21.13;56.50
8047;BME280;67150;42.516;23.358;2023-08-17T00:29:08;88778.78;;;21.10;56.06
8047;BME280;67150;42.516;23.358;2023-08-17T00:31:35;88772.84;;;21.09;56.35
8047;BME280;67150;42.516;23.358;2023-08-17T00:34:03;88777.97;;;21.09;56.16
8047;BME280;67150;42.516;23.358;2023-08-17T00:36:32;88781.16;;;21.11;56.26
8047;BME280;67150;42.516;23.358;2023-08-17T00:38:59;88774.47;;;21.10;56.50
8047;BME280;67150;42.516;23.358;2023-08-17T00:41:26;88771.22;;;21.08;56.51
8047;BME280;67150;42.516;23.358;2023-08-17T00:43:54;88760.47;;;21.05;56.90
8047;BME280;67150;42.516;23.358;2023-08-17T00:46:21;88774.59;;;21.09;56.68
8047;BME280;67150;42.516;23.358;2023-08-17T00:48:49;88770.28;;;21.09;56.31
8047;BME280;67150;42.516;23.358;2023-08-17T00:51:17;88771.22;;;21.08;56.57
8047;BME280;67150;42.516;23.358;2023-08-17T00:53:47;88751.69;;;20.99;56.53
8047;BME280;67150;42.516;23.358;2023-08-17T00:56:15;88773.81;;;21.08;56.43
8047;BME280;67150;42.516;23.358;2023-08-17T00:58:42;88764.50;;;21.07;56.53
8047;BME280;67150;42.516;23.358;2023-08-17T01:01:10;88770.44;;;21.08;56.69
8047;BME280;67150;42.516;23.358;2023-08-17T01:03:39;88764.66;;;21.06;56.62
8047;BME280;67150;42.516;23.358;2023-08-17T01:06:08;88763.53;;;21.00;56.44
8047;BME280;67150;42.516;23.358;2023-08-17T01:08:35;88768.81;;;21.07;56.55
8047;BME280;67150;42.516;23.358;2023-08-17T01:11:12;88762.91;;;21.06;56.51
8047;BME280;67150;42.516;23.358;2023-08-17T01:13:47;88769.78;;;21.06;56.42
8047;BME280;67150;42.516;23.358;2023-08-17T01:16:21;88762.28;;;21.04;56.56
8047;BME280;67150;42.516;23.358;2023-08-17T01:18:50;88752.78;;;21.05;56.48
8047;BME280;67150;42.516;23.358;2023-08-17T01:21:21;88757.91;;;21.05;56.27
8047;BME280;67150;42.516;23.358;2023-08-17T01:23:50;88758.91;;;21.04;56.19
8047;BME280;67150;42.516;23.358;2023-08-17T01:26:18;88759.03;;;21.02;56.48
8047;BME280;67150;42.516;23.358;2023-08-17T01:28:46;88757.91;;;21.05;56.35
8047;BME280;67150;42.516;23.358;2023-08-17T01:31:19;88748.16;;;21.00;56.47
8047;BME280;67150;42.516;23.358;2023-08-17T01:33:50;88752.97;;;21.03;56.35
8047;BME280;67150;42.516;23.358;2023-08-17T01:36:22;88752.97;;;21.03;56.18
8047;BME280;67150;42.516;23.358;2023-08-17T01:38:54;88705.00;;;20.73;56.18
8047;BME280;67150;42.516;23.358;2023-08-17T01:41:25;88750.22;;;21.05;56.42
8047;BME280;67150;42.516;23.358;2023-08-17T01:43:54;88753.59;;;21.05;56.22
8047;BME280;67150;42.516;23.358;2023-08-17T01:46:21;88749.28;;;21.06;56.61
8047;BME280;67150;42.516;23.358;2023-08-17T01:48:49;88747.66;;;21.05;56.18
8047;BME280;67150;42.516;23.358;2023-08-17T01:51:18;88746.72;;;21.06;55.79
8047;BME280;67150;42.516;23.358;2023-08-17T01:53:46;88763.84;;;21.05;56.09
8047;BME280;67150;42.516;23.358;2023-08-17T01:56:15;88746.91;;;21.04;55.83
8047;BME280;67150;42.516;23.358;2023-08-17T01:58:43;88749.47;;;21.04;55.35
8047;BME280;67150;42.516;23.358;2023-08-17T02:01:10;88747.84;;;21.03;55.53
8047;BME280;67150;42.516;23.358;2023-08-17T02:03:37;88751.38;;;21.02;55.42
8047;BME280;67150;42.516;23.358;2023-08-17T02:06:05;88729.47;;;20.92;55.41
8047;BME280;67150;42.516;23.358;2023-08-17T02:08:33;88744.97;;;20.98;55.38
8047;BME280;67150;42.516;23.358;2023-08-17T02:11:01;88746.41;;;21.01;55.32
8047;BME280;67150;42.516;23.358;2023-08-17T02:13:29;88744.66;;;21.01;55.28
8047;BME280;67150;42.516;23.358;2023-08-17T02:15:57;88741.44;;;20.99;55.16
8047;BME280;67150;42.516;23.358;2023-08-17T02:18:24;88743.06;;;21.00;55.31
8047;BME280;67150;42.516;23.358;2023-08-17T02:23:18;88747.53;;;20.98;54.40
8047;BME280;67150;42.516;23.358;2023-08-17T02:25:45;88730.28;;;20.92;54.69
8047;BME280;67150;42.516;23.358;2023-08-17T02:28:13;88737.63;;;20.95;54.05
8047;BME280;67150;42.516;23.358;2023-08-17T02:30:42;88748.03;;;20.94;54.73
8047;BME280;67150;42.516;23.358;2023-08-17T02:33:09;88732.81;;;20.84;54.41
8047;BME280;67150;42.516;23.358;2023-08-17T02:35:36;88737.28;;;20.90;54.50
8047;BME280;67150;42.516;23.358;2023-08-17T02:38:03;88739.72;;;20.92;54.51
8047;BME280;67150;42.516;23.358;2023-08-17T02:40:31;88733.63;;;20.93;54.60
8047;BME280;67150;42.516;23.358;2023-08-17T02:42:58;88738.28;;;20.89;54.22
8047;BME280;67150;42.516;23.358;2023-08-17T02:45:25;88738.28;;;20.89;54.30
8047;BME280;67150;42.516;23.358;2023-08-17T02:47:54;88681.34;;;20.55;54.11
8047;BME280;67150;42.516;23.358;2023-08-17T02:50:21;88729.78;;;20.89;54.19
8047;BME280;67150;42.516;23.358;2023-08-17T02:52:49;88727.38;;;20.87;54.15
8047;BME280;67150;42.516;23.358;2023-08-17T02:55:16;88729.31;;;20.85;53.86
8047;BME280;67150;42.516;23.358;2023-08-17T02:57:43;88739.56;;;20.85;53.82
8047;BME280;67150;42.516;23.358;2023-08-17T03:00:12;88741.16;;;20.86;53.78
8047;BME280;67150;42.516;23.358;2023-08-17T03:02:39;88737.00;;;20.85;53.92
8047;BME280;67150;42.516;23.358;2023-08-17T03:05:08;88729.31;;;20.85;53.76
8047;BME280;67150;42.516;23.358;2023-08-17T03:07:35;88737.63;;;20.87;54.00
8047;BME280;67150;42.516;23.358;2023-08-17T03:10:03;88731.88;;;20.85;53.83
8047;BME280;67150;42.516;23.358;2023-08-17T03:12:31;88737.81;;;20.86;53.85
8047;BME280;67150;42.516;23.358;2023-08-17T03:14:58;88725.78;;;20.86;54.14
8047;BME280;67150;42.516;23.358;2023-08-17T03:17:25;88733.19;;;20.81;53.32
8047;BME280;67150;42.516;23.358;2023-08-17T03:19:53;88737.94;;;20.84;53.49
8047;BME280;67150;42.516;23.358;2023-08-17T03:22:21;88726.94;;;20.84;53.52
8047;BME280;67150;42.516;23.358;2023-08-17T03:24:49;88721.81;;;20.84;53.76
8047;BME280;67150;42.516;23.358;2023-08-17T03:27:16;88726.13;;;20.83;53.39
8047;BME280;67150;42.516;23.358;2023-08-17T03:29:43;88722.13;;;20.81;53.89
8047;BME280;67150;42.516;23.358;2023-08-17T03:32:10;88722.75;;;20.83;53.83
8047;BME280;67150;42.516;23.358;2023-08-17T03:34:38;88724.38;;;20.84;53.86
8047;BME280;67150;42.516;23.358;2023-08-17T03:37:05;88736.19;;;20.85;53.67
8047;BME280;67150;42.516;23.358;2023-08-17T03:39:34;88723.38;;;20.85;53.94
8047;BME280;67150;42.516;23.358;2023-08-17T03:42:01;88719.06;;;20.85;54.13
8047;BME280;67150;42.516;23.358;2023-08-17T03:44:28;88716.69;;;20.84;53.69
8047;BME280;67150;42.516;23.358;2023-08-17T03:46:56;88737.16;;;20.84;54.03
8047;BME280;67150;42.516;23.358;2023-08-17T03:49:23;88721.00;;;20.83;54.11
8047;BME280;67150;42.516;23.358;2023-08-17T03:51:50;88721.00;;;20.83;53.75
8047;BME280;67150;42.516;23.358;2023-08-17T03:54:18;88726.13;;;20.83;53.72
8047;BME280;67150;42.516;23.358;2023-08-17T03:56:46;88737.31;;;20.82;53.49
8047;BME280;67150;42.516;23.358;2023-08-17T03:59:14;88739.06;;;20.82;53.99
8047;BME280;67150;42.516;23.358;2023-08-17T04:01:41;88737.50;;;20.81;53.77
8047;BME280;67150;42.516;23.358;2023-08-17T04:04:09;88733.19;;;20.81;53.97
8047;BME280;67150;42.516;23.358;2023-08-17T04:06:37;88745.00;;;20.82;54.12
8047;BME280;67150;42.516;23.358;2023-08-17T04:09:05;88740.84;;;20.81;53.79
8047;BME280;67150;42.516;23.358;2023-08-17T04:11:34;88738.31;;;20.81;53.77
8047;BME280;67150;42.516;23.358;2023-08-17T04:14:04;88737.50;;;20.81;54.15
8047;BME280;67150;42.516;23.358;2023-08-17T04:16:32;88726.78;;;20.69;53.68
8047;BME280;67150;42.516;23.358;2023-08-17T04:19:00;88743.56;;;20.80;54.00
8047;BME280;67150;42.516;23.358;2023-08-17T04:21:27;88741.00;;;20.80;54.38
8047;BME280;67150;42.516;23.358;2023-08-17T04:23:54;88740.19;;;20.79;54.12
8047;BME280;67150;42.516;23.358;2023-08-17T04:26:22;88749.50;;;20.80;54.33
8047;BME280;67150;42.516;23.358;2023-08-17T04:28:49;88747.75;;;20.81;54.25
8047;BME280;67150;42.516;23.358;2023-08-17T04:31:18;88749.50;;;20.80;54.44
8047;BME280;67150;42.516;23.358;2023-08-17T04:33:45;88741.81;;;20.80;54.51
8047;BME280;67150;42.516;23.358;2023-08-17T04:36:13;88750.44;;;20.79;54.43
8047;BME280;67150;42.516;23.358;2023-08-17T04:38:40;88748.88;;;20.78;54.31
8047;BME280;67150;42.516;23.358;2023-08-17T04:41:07;88752.06;;;20.80;54.60
8047;BME280;67150;42.516;23.358;2023-08-17T04:43:35;88742.75;;;20.79;54.62
8047;BME280;67150;42.516;23.358;2023-08-17T04:46:02;88746.94;;;20.80;54.84
8047;BME280;67150;42.516;23.358;2023-08-17T04:48:31;88755.56;;;20.79;54.77
8047;BME280;67150;42.516;23.358;2023-08-17T04:50:58;88752.06;;;20.80;54.76
8047;BME280;67150;42.516;23.358;2023-08-17T04:53:26;88750.94;;;20.83;54.70
8047;BME280;67150;42.516;23.358;2023-08-17T04:55:53;88749.78;;;20.85;54.88
8047;BME280;67150;42.516;23.358;2023-08-17T04:58:20;88749.00;;;20.85;54.99
8047;BME280;67150;42.516;23.358;2023-08-17T05:00:48;88743.72;;;20.86;55.09
8047;BME280;67150;42.516;23.358;2023-08-17T05:03:18;88744.03;;;20.83;54.91
8047;BME280;67150;42.516;23.358;2023-08-17T05:05:47;88744.69;;;20.85;55.02
8047;BME280;67150;42.516;23.358;2023-08-17T05:08:14;88734.44;;;20.85;54.96
8047;BME280;67150;42.516;23.358;2023-08-17T05:10:41;88743.72;;;20.86;54.62
8047;BME280;67150;42.516;23.358;2023-08-17T05:13:09;88745.63;;;20.84;54.83
8047;BME280;67150;42.516;23.358;2023-08-17T05:15:36;88742.75;;;20.87;55.11
8047;BME280;67150;42.516;23.358;2023-08-17T05:18:04;88750.09;;;20.90;55.00
8047;BME280;67150;42.516;23.358;2023-08-17T05:20:31;88744.97;;;20.90;55.27
8047;BME280;67150;42.516;23.358;2023-08-17T05:23:00;88744.03;;;20.91;55.14
8047;BME280;67150;42.516;23.358;2023-08-17T05:25:27;88724.03;;;20.87;55.44
8047;BME280;67150;42.516;23.358;2023-08-17T05:27:55;88717.81;;;20.81;55.35
8047;BME280;67150;42.516;23.358;2023-08-17T05:30:22;88740.19;;;20.95;55.39
8047;BME280;67150;42.516;23.358;2023-08-17T05:32:50;88738.44;;;20.96;55.37
8047;BME280;67150;42.516;23.358;2023-08-17T05:35:17;88736.63;;;20.96;55.37
8047;BME280;67150;42.516;23.358;2023-08-17T05:37:45;88734.75;;;20.98;55.57
8047;BME280;67150;42.516;23.358;2023-08-17T05:40:14;88737.13;;;21.00;55.46
8047;BME280;67150;42.516;23.358;2023-08-17T05:42:41;88737.59;;;21.03;55.42
8047;BME280;67150;42.516;23.358;2023-08-17T05:45:09;88739.22;;;21.04;54.92
8047;BME280;67150;42.516;23.358;2023-08-17T05:47:36;88737.59;;;21.03;55.10
8047;BME280;67150;42.516;23.358;2023-08-17T05:50:04;88738.41;;;21.04;55.02
8047;BME280;67150;42.516;23.358;2023-08-17T05:52:32;88734.72;;;21.06;55.11
8047;BME280;67150;42.516;23.358;2023-08-17T05:54:59;88732.81;;;21.08;55.05
8047;BME280;67150;42.516;23.358;2023-08-17T05:57:29;88737.78;;;21.10;55.08
8047;BME280;67150;42.516;23.358;2023-08-17T05:59:56;88732.47;;;21.11;55.28
8047;BME280;67150;42.516;23.358;2023-08-17T06:02:23;88733.13;;;21.13;55.24
8047;BME280;67150;42.516;23.358;2023-08-17T06:04:51;88720.78;;;21.09;55.28
8047;BME280;67150;42.516;23.358;2023-08-17T06:07:18;88732.78;;;21.16;55.22
8047;BME280;67150;42.516;23.358;2023-08-17T06:09:45;88741.13;;;21.18;55.21
8047;BME280;67150;42.516;23.358;2023-08-17T06:12:13;88744.31;;;21.20;55.33
8047;BME280;67150;42.516;23.358;2023-08-17T06:14:41;88740.78;;;21.21;55.12
8047;BME280;67150;42.516;23.358;2023-08-17T06:17:09;88740.31;;;21.18;55.24
8047;BME280;67150;42.516;23.358;2023-08-17T06:19:36;88743.50;;;21.20;55.25
8047;BME280;67150;42.516;23.358;2023-08-17T06:22:05;88742.38;;;21.22;55.38
8047;BME280;67150;42.516;23.358;2023-08-17T06:24:32;88735.97;;;21.27;55.30
8047;BME280;67150;42.516;23.358;2023-08-17T06:27:00;88735.97;;;21.27;55.29
8047;BME280;67150;42.516;23.358;2023-08-17T06:29:27;88734.69;;;21.22;55.45
8047;BME280;67150;42.516;23.358;2023-08-17T06:31:56;88743.94;;;21.32;55.19
8047;BME280;67150;42.516;23.358;2023-08-17T06:34:23;88747.78;;;21.36;55.10
8047;BME280;67150;42.516;23.358;2023-08-17T06:36:57;88726.38;;;21.20;55.40
8047;BME280;67150;42.516;23.358;2023-08-17T06:39:25;88745.84;;;21.38;55.26
8047;BME280;67150;42.516;23.358;2023-08-17T06:41:53;88752.59;;;21.39;55.38
8047;BME280;67150;42.516;23.358;2023-08-17T06:44:21;88756.09;;;21.38;55.54
8047;BME280;67150;42.516;23.358;2023-08-17T06:46:48;88759.31;;;21.40;55.57
8047;BME280;67150;42.516;23.358;2023-08-17T06:49:17;88756.91;;;21.38;55.70
8047;BME280;67150;42.516;23.358;2023-08-17T06:51:44;88758.84;;;21.36;55.80
8047;BME280;67150;42.516;23.358;2023-08-17T06:54:12;88760.91;;;21.41;55.82
8047;BME280;67150;42.516;23.358;2023-08-17T06:56:39;88759.31;;;21.40;55.64
8047;BME280;67150;42.516;23.358;2023-08-17T06:59:06;88759.00;;;21.43;55.79
8047;BME280;67150;42.516;23.358;2023-08-17T07:01:34;88757.84;;;21.45;55.65
8047;BME280;67150;42.516;23.358;2023-08-17T07:04:01;88757.84;;;21.45;55.66
8047;BME280;67150;42.516;23.358;2023-08-17T07:06:30;88766.69;;;21.43;55.94
8047;BME280;67150;42.516;23.358;2023-08-17T07:08:57;88769.34;;;21.49;55.77
8047;BME280;67150;42.516;23.358;2023-08-17T07:11:25;88701.91;;;21.10;55.67
8047;BME280;67150;42.516;23.358;2023-08-17T07:13:52;88765.84;;;21.50;55.88
8047;BME280;67150;42.516;23.358;2023-08-17T07:16:19;88770.50;;;21.47;55.94
8047;BME280;67150;42.516;23.358;2023-08-17T07:18:47;88772.09;;;21.48;56.04
8047;BME280;67150;42.516;23.358;2023-08-17T07:21:14;88768.41;;;21.50;55.91
8047;BME280;67150;42.516;23.358;2023-08-17T07:23:45;88768.56;;;21.49;55.97
8047;BME280;67150;42.516;23.358;2023-08-17T07:26:13;88766.59;;;21.59;55.67
8047;BME280;67150;42.516;23.358;2023-08-17T07:28:40;88763.22;;;21.58;55.61
8047;BME280;67150;42.516;23.358;2023-08-17T07:31:07;88773.50;;;21.58;55.77
8047;BME280;67150;42.516;23.358;2023-08-17T07:33:35;88767.56;;;21.58;55.94
8047;BME280;67150;42.516;23.358;2023-08-17T07:36:02;88769.97;;;21.59;55.99
8047;BME280;67150;42.516;23.358;2023-08-17T07:38:30;88765.97;;;21.57;56.09
8047;BME280;67150;42.516;23.358;2023-08-17T07:40:59;88768.06;;;21.53;56.27
8047;BME280;67150;42.516;23.358;2023-08-17T07:43:26;88764.38;;;21.56;56.32
8047;BME280;67150;42.516;23.358;2023-08-17T07:45:54;88777.03;;;21.57;56.43
8047;BME280;67150;42.516;23.358;2023-08-17T07:48:21;88764.38;;;21.56;56.29
8047;BME280;67150;42.516;23.358;2023-08-17T07:50:49;88769.47;;;21.64;56.22
8047;BME280;67150;42.516;23.358;2023-08-17T07:53:17;88768.03;;;21.61;56.49
8047;BME280;67150;42.516;23.358;2023-08-17T07:55:45;88769.13;;;21.67;56.54
8047;BME280;67150;42.516;23.358;2023-08-17T07:58:14;88762.75;;;21.63;56.38
8047;BME280;67150;42.516;23.358;2023-08-17T08:00:41;88761.75;;;21.64;56.31
8047;BME280;67150;42.516;23.358;2023-08-17T08:03:09;88767.84;;;21.71;56.56
8047;BME280;67150;42.516;23.358;2023-08-17T08:05:36;88766.91;;;21.64;57.22
8047;BME280;67150;42.516;23.358;2023-08-17T08:08:04;88769.78;;;21.69;56.74
8047;BME280;67150;42.516;23.358;2023-08-17T08:10:31;88763.84;;;21.68;56.64
8047;BME280;67150;42.516;23.358;2023-08-17T08:12:59;88762.75;;;21.63;57.12
8047;BME280;67150;42.516;23.358;2023-08-17T08:15:28;88749.59;;;21.58;56.62
8047;BME280;67150;42.516;23.358;2023-08-17T08:17:55;88772.13;;;21.78;56.45
8047;BME280;67150;42.516;23.358;2023-08-17T08:20:23;88776.16;;;21.73;57.23
8047;BME280;67150;42.516;23.358;2023-08-17T08:22:50;88763.81;;;21.76;56.79
8047;BME280;67150;42.516;23.358;2023-08-17T08:25:17;88767.16;;;21.77;57.05
8047;BME280;67150;42.516;23.358;2023-08-17T08:27:45;88767.63;;;21.81;56.87
8047;BME280;67150;42.516;23.358;2023-08-17T08:30:12;88767.47;;;21.82;56.60
8047;BME280;67150;42.516;23.358;2023-08-17T08:32:41;88771.34;;;21.78;56.94
8047;BME280;67150;42.516;23.358;2023-08-17T08:35:08;88772.91;;;21.79;56.80
8047;BME280;67150;42.516;23.358;2023-08-17T08:37:36;88772.31;;;21.77;57.29
8047;BME280;67150;42.516;23.358;2023-08-17T08:40:11;88771.34;;;21.78;57.08
8047;BME280;67150;42.516;23.358;2023-08-17T08:42:39;88767.63;;;21.81;56.74
8047;BME280;67150;42.516;23.358;2023-08-17T08:45:07;88736.00;;;21.57;56.83
8047;BME280;67150;42.516;23.358;2023-08-17T08:47:36;88767.78;;;21.79;57.05
8047;BME280;67150;42.516;23.358;2023-08-17T08:50:05;88759.94;;;21.81;56.62
8047;BME280;67150;42.516;23.358;2023-08-17T08:52:34;88766.84;;;21.80;56.65
8047;BME280;67150;42.516;23.358;2023-08-17T08:55:11;88769.88;;;21.84;56.69
8047;BME280;67150;42.516;23.358;2023-08-17T08:57:39;88763.94;;;21.83;56.43
8047;BME280;67150;42.516;23.358;2023-08-17T09:00:08;88762.31;;;21.82;56.67
8047;BME280;67150;42.516;23.358;2023-08-17T09:02:37;88767.94;;;21.86;56.83
8047;BME280;67150;42.516;23.358;2023-08-17T09:05:09;88761.69;;;21.88;56.55
8047;BME280;67150;42.516;23.358;2023-08-17T09:07:37;88759.59;;;21.92;56.35
8047;BME280;67150;42.516;23.358;2023-08-17T09:10:05;88760.41;;;21.92;56.49
8047;BME280;67150;42.516;23.358;2023-08-17T09:12:33;88761.63;;;21.96;56.11
8047;BME280;67150;42.516;23.358;2023-08-17T09:15:00;88748.19;;;21.94;56.44
8047;BME280;67150;42.516;23.358;2023-08-17T09:17:28;88750.22;;;21.99;55.95
8047;BME280;67150;42.516;23.358;2023-08-17T09:19:55;88757.78;;;22.00;56.58
8047;BME280;67150;42.516;23.358;2023-08-17T09:22:25;88753.16;;;21.96;56.96
8047;BME280;67150;42.516;23.358;2023-08-17T09:24:52;88745.91;;;21.99;56.72
8047;BME280;67150;42.516;23.358;2023-08-17T09:27:20;88746.25;;;21.96;56.91
8047;BME280;67150;42.516;23.358;2023-08-17T09:29:47;88746.25;;;21.96;57.03
8047;BME280;67150;42.516;23.358;2023-08-17T09:32:15;88739.00;;;22.00;56.51
8047;BME280;67150;42.516;23.358;2023-08-17T09:34:44;88746.88;;;21.98;56.37
8047;BME280;67150;42.516;23.358;2023-08-17T09:37:12;88752.13;;;22.05;56.95
8047;BME280;67150;42.516;23.358;2023-08-17T09:39:41;88737.72;;;22.04;57.34
8047;BME280;67150;42.516;23.358;2023-08-17T09:42:09;88731.50;;;21.98;57.09
8047;BME280;67150;42.516;23.358;2023-08-17T09:44:37;88735.31;;;22.02;57.51
8047;BME280;67150;42.516;23.358;2023-08-17T09:47:05;88747.97;;;22.04;57.18
8047;BME280;67150;42.516;23.358;2023-08-17T09:49:33;88738.19;;;22.07;57.39
8047;BME280;67150;42.516;23.358;2023-08-17T09:52:00;88737.53;;;22.05;57.20
8047;BME280;67150;42.516;23.358;2023-08-17T09:54:30;88733.81;;;22.08;56.82
8047;BME280;67150;42.516;23.358;2023-08-17T09:56:59;88736.22;;;22.09;56.78
8047;BME280;67150;42.516;23.358;2023-08-17T09:59:27;88733.13;;;22.14;56.04
8047;BME280;67150;42.516;23.358;2023-08-17T10:01:55;88724.16;;;22.18;55.80
8047;BME280;67150;42.516;23.358;2023-08-17T10:04:26;88741.84;;;22.13;56.47
8047;BME280;67150;42.516;23.358;2023-08-17T10:07:00;88729.63;;;22.15;56.43
8047;BME280;67150;42.516;23.358;2023-08-17T10:09:31;88737.47;;;22.13;56.72
8047;BME280;67150;42.516;23.358;2023-08-17T10:12:10;88733.94;;;22.14;56.43
8047;BME280;67150;42.516;23.358;2023-08-17T10:14:43;88726.25;;;22.14;56.58
8047;BME280;67150;42.516;23.358;2023-08-17T10:17:15;88727.66;;;22.17;56.42
8047;BME280;67150;42.516;23.358;2023-08-17T10:19:49;88728.47;;;22.17;56.43
8047;BME280;67150;42.516;23.358;2023-08-17T10:22:20;88731.03;;;22.17;56.05
8047;BME280;67150;42.516;23.358;2023-08-17T10:24:51;88723.06;;;22.12;56.34
8047;BME280;67150;42.516;23.358;2023-08-17T10:27:21;88731.66;;;22.19;56.28
8047;BME280;67150;42.516;23.358;2023-08-17T10:29:51;88731.50;;;22.21;56.51
8047;BME280;67150;42.516;23.358;2023-08-17T10:32:21;88726.53;;;22.19;56.52
8047;BME280;67150;42.516;23.358;2023-08-17T10:34:50;88740.81;;;22.22;56.16
8047;BME280;67150;42.516;23.358;2023-08-17T10:37:18;88730.69;;;22.20;56.14
8047;BME280;67150;42.516;23.358;2023-08-17T10:39:47;88732.13;;;22.23;56.04
8047;BME280;67150;42.516;23.358;2023-08-17T10:42:14;88730.19;;;22.25;56.04
8047;BME280;67150;42.516;23.358;2023-08-17T10:44:46;88743.03;;;22.25;55.94
8047;BME280;67150;42.516;23.358;2023-08-17T10:47:25;88725.81;;;22.33;55.67
8047;BME280;67150;42.516;23.358;2023-08-17T10:49:56;88728.19;;;22.35;55.41
8047;BME280;67150;42.516;23.358;2023-08-17T10:52:28;88727.72;;;22.31;55.50
8047;BME280;67150;42.516;23.358;2023-08-17T10:54:56;88720.66;;;22.33;55.57
8047;BME280;67150;42.516;23.358;2023-08-17T10:57:34;88713.59;;;22.36;55.11
8047;BME280;67150;42.516;23.358;2023-08-17T11:00:22;88721.91;;;22.38;55.50
8047;BME280;67150;42.516;23.358;2023-08-17T11:02:55;88716.16;;;22.36;55.69
8047;BME280;67150;42.516;23.358;2023-08-17T11:05:42;88722.56;;;22.40;55.33
8047;BME280;67150;42.516;23.358;2023-08-17T11:08:11;88712.28;;;22.40;55.15
8047;BME280;67150;42.516;23.358;2023-08-17T11:10:41;88691.50;;;22.26;55.20
8047;BME280;67150;42.516;23.358;2023-08-17T11:13:09;88709.25;;;22.36;55.28
8047;BME280;67150;42.516;23.358;2023-08-17T11:15:39;88712.63;;;22.37;55.30
8047;BME280;67150;42.516;23.358;2023-08-17T11:18:10;88697.03;;;22.38;55.02
8047;BME280;67150;42.516;23.358;2023-08-17T11:20:39;88710.00;;;22.45;55.12
8047;BME280;67150;42.516;23.358;2023-08-17T11:23:08;88703.25;;;22.44;55.23
8047;BME280;67150;42.516;23.358;2023-08-17T11:25:37;88701.13;;;22.47;54.88
8047;BME280;67150;42.516;23.358;2023-08-17T11:28:06;88709.66;;;22.48;54.76
8047;BME280;67150;42.516;23.358;2023-08-17T11:30:34;88710.44;;;22.48;55.01
8047;BME280;67150;42.516;23.358;2023-08-17T11:33:06;88701.28;;;22.46;55.13
8047;BME280;67150;42.516;23.358;2023-08-17T11:35:34;88703.34;;;22.50;55.05
8047;BME280;67150;42.516;23.358;2023-08-17T11:38:02;88705.47;;;22.47;55.13
8047;BME280;67150;42.516;23.358;2023-08-17T11:40:32;88699.03;;;22.51;55.16
8047;BME280;67150;42.516;23.358;2023-08-17T11:43:00;88689.97;;;22.55;55.30
8047;BME280;67150;42.516;23.358;2023-08-17T11:45:27;88699.28;;;22.56;55.29
8047;BME280;67150;42.516;23.358;2023-08-17T11:47:54;88691.25;;;22.59;55.37
8047;BME280;67150;42.516;23.358;2023-08-17T11:50:24;88689.03;;;22.56;55.61
8047;BME280;67150;42.516;23.358;2023-08-17T11:52:52;88691.78;;;22.54;55.52
8047;BME280;67150;42.516;23.358;2023-08-17T11:55:19;88687.41;;;22.55;55.58
8047;BME280;67150;42.516;23.358;2023-08-17T11:57:46;88684.47;;;22.66;55.80
8047;BME280;67150;42.516;23.358;2023-08-17T12:00:18;88678.00;;;22.70;55.74
8047;BME280;67150;42.516;23.358;2023-08-17T12:02:47;88687.47;;;22.69;55.79
8047;BME280;67150;42.516;23.358;2023-08-17T12:05:19;88687.31;;;22.71;55.98
8047;BME280;67150;42.516;23.358;2023-08-17T12:07:50;88672.00;;;22.55;56.12
8047;BME280;67150;42.516;23.358;2023-08-17T12:10:18;88685.72;;;22.70;55.88
8047;BME280;67150;42.516;23.358;2023-08-17T12:12:47;88685.09;;;22.68;56.01
8047;BME280;67150;42.516;23.358;2023-08-17T12:15:16;88687.31;;;22.71;56.15
8047;BME280;67150;42.516;23.358;2023-08-17T12:17:45;88687.94;;;22.73;56.03
8047;BME280;67150;42.516;23.358;2023-08-17T12:20:17;88684.06;;;22.77;55.84
8047;BME280;67150;42.516;23.358;2023-08-17T12:22:45;88677.06;;;22.85;55.81
8047;BME280;67150;42.516;23.358;2023-08-17T12:25:14;88676.09;;;22.86;55.61
8047;BME280;67150;42.516;23.358;2023-08-17T12:27:42;88678.66;;;22.86;55.64
8047;BME280;67150;42.516;23.358;2023-08-17T12:30:13;88671.47;;;22.82;55.49
8047;BME280;67150;42.516;23.358;2023-08-17T12:32:41;88680.94;;;22.81;55.31
8047;BME280;67150;42.516;23.358;2023-08-17T12:35:08;88673.59;;;22.78;55.65
8047;BME280;67150;42.516;23.358;2023-08-17T12:37:35;88677.88;;;22.86;54.94
8047;BME280;67150;42.516;23.358;2023-08-17T12:40:03;88665.88;;;22.78;55.40
8047;BME280;67150;42.516;23.358;2023-08-17T12:42:32;88674.94;;;22.89;55.28
8047;BME280;67150;42.516;23.358;2023-08-17T12:44:59;88671.13;;;22.85;55.43
8047;BME280;67150;42.516;23.358;2023-08-17T12:47:27;88676.25;;;22.85;55.59
8047;BME280;67150;42.516;23.358;2023-08-17T12:49:54;88675.56;;;22.91;55.25
8047;BME280;67150;42.516;23.358;2023-08-17T12:52:21;88668.47;;;22.93;55.00
8047;BME280;67150;42.516;23.358;2023-08-17T12:54:49;88676.72;;;22.88;55.22
8047;BME280;67150;42.516;23.358;2023-08-17T12:57:16;88673.19;;;22.90;55.18
8047;BME280;67150;42.516;23.358;2023-08-17T12:59:45;88681.03;;;22.88;55.21
8047;BME280;67150;42.516;23.358;2023-08-17T13:02:12;88671.91;;;22.85;55.32
8047;BME280;67150;42.516;23.358;2023-08-17T13:04:40;88671.72;;;22.87;55.56
8047;BME280;67150;42.516;23.358;2023-08-17T13:07:07;88674.28;;;22.87;55.26
8047;BME280;67150;42.516;23.358;2023-08-17T13:09:34;88680.06;;;22.89;55.30